sensor_id;sensor_type;location;lat;lon;timestamp;P1;durP1;ratioP1;P2;durP2;ratioP2
18732;SDS011;9495;51.210;2.934;2023-04-20T00:00:25;9.50;;;5.30;;
18732;SDS011;9495;51.210;2.934;2023-04-20T00:02:53;8.47;;;5.10;;
18732;SDS011;9495;51.210;2.934;2023-04-20T00:05:23;9.47;;;4.80;;
18732;SDS011;9495;51.210;2.934;2023-04-20T00:07:53;5.30;;;4.70;;
18732;SDS011;9495;51.210;2.934;2023-04-20T00:10:22;10.00;;;4.73;;
18732;SDS011;9495;51.210;2.934;2023-04-20T00:12:50;11.37;;;5.10;;
18732;SDS011;9495;51.210;2.934;2023-04-20T00:15:19;10.53;;;4.93;;
18732;SDS011;9495;51.210;2.934;2023-04-20T00:17:48;9.60;;;5.10;;
18732;SDS011;9495;51.210;2.934;2023-04-20T00:20:17;10.17;;;4.90;;
18732;SDS011;9495;51.210;2.934;2023-04-20T00:22:46;7.33;;;4.30;;
18732;SDS011;9495;51.210;2.934;2023-04-20T00:25:15;8.77;;;4.70;;
18732;SDS011;9495;51.210;2.934;2023-04-20T00:27:43;5.83;;;4.10;;
18732;SDS011;9495;51.210;2.934;2023-04-20T00:30:12;7.23;;;4.37;;
18732;SDS011;9495;51.210;2.934;2023-04-20T00:32:41;6.23;;;4.20;;
18732;SDS011;9495;51.210;2.934;2023-04-20T00:35:10;9.73;;;4.80;;
18732;SDS011;9495;51.210;2.934;2023-04-20T00:37:39;6.33;;;4.40;;
18732;SDS011;9495;51.210;2.934;2023-04-20T00:40:09;8.23;;;4.83;;
18732;SDS011;9495;51.210;2.934;2023-04-20T00:42:37;8.13;;;4.70;;
18732;SDS011;9495;51.210;2.934;2023-04-20T00:45:08;7.03;;;4.53;;
18732;SDS011;9495;51.210;2.934;2023-04-20T00:47:37;7.33;;;4.57;;
18732;SDS011;9495;51.210;2.934;2023-04-20T00:50:06;10.23;;;5.00;;
18732;SDS011;9495;51.210;2.934;2023-04-20T00:52:36;8.97;;;4.30;;
18732;SDS011;9495;51.210;2.934;2023-04-20T00:55:05;7.17;;;4.50;;
18732;SDS011;9495;51.210;2.934;2023-04-20T00:57:35;7.27;;;4.83;;
18732;SDS011;9495;51.210;2.934;2023-04-20T01:00:04;5.20;;;4.60;;
18732;SDS011;9495;51.210;2.934;2023-04-20T01:02:33;6.33;;;4.53;;
18732;SDS011;9495;51.210;2.934;2023-04-20T01:05:02;8.03;;;4.93;;
18732;SDS011;9495;51.210;2.934;2023-04-20T01:07:31;9.27;;;4.30;;
18732;SDS011;9495;51.210;2.934;2023-04-20T01:10:00;7.30;;;4.80;;
18732;SDS011;9495;51.210;2.934;2023-04-20T01:12:28;7.23;;;4.77;;
18732;SDS011;9495;51.210;2.934;2023-04-20T01:14:58;8.63;;;4.43;;
18732;SDS011;9495;51.210;2.934;2023-04-20T01:17:27;8.07;;;4.60;;
18732;SDS011;9495;51.210;2.934;2023-04-20T01:19:55;6.03;;;4.97;;
18732;SDS011;9495;51.210;2.934;2023-04-20T01:22:26;8.93;;;4.70;;
18732;SDS011;9495;51.210;2.934;2023-04-20T01:24:55;9.00;;;4.50;;
18732;SDS011;9495;51.210;2.934;2023-04-20T01:27:23;8.30;;;4.07;;
18732;SDS011;9495;51.210;2.934;2023-04-20T01:29:52;8.53;;;4.40;;
18732;SDS011;9495;51.210;2.934;2023-04-20T01:32:20;10.73;;;4.33;;
18732;SDS011;9495;51.210;2.934;2023-04-20T01:34:49;7.27;;;4.40;;
18732;SDS011;9495;51.210;2.934;2023-04-20T01:37:17;9.03;;;4.33;;
18732;SDS011;9495;51.210;2.934;2023-04-20T01:39:47;8.57;;;4.43;;
18732;SDS011;9495;51.210;2.934;2023-04-20T01:42:15;11.70;;;4.40;;
18732;SDS011;9495;51.210;2.934;2023-04-20T01:44:44;6.80;;;4.43;;
18732;SDS011;9495;51.210;2.934;2023-04-20T01:47:12;7.03;;;4.70;;
18732;SDS011;9495;51.210;2.934;2023-04-20T01:49:41;7.97;;;4.30;;
18732;SDS011;9495;51.210;2.934;2023-04-20T01:52:09;8.17;;;4.50;;
18732;SDS011;9495;51.210;2.934;2023-04-20T01:54:38;10.77;;;4.60;;
18732;SDS011;9495;51.210;2.934;2023-04-20T01:57:08;9.43;;;4.53;;
18732;SDS011;9495;51.210;2.934;2023-04-20T01:59:36;6.97;;;4.33;;
18732;SDS011;9495;51.210;2.934;2023-04-20T02:02:05;6.67;;;4.60;;
18732;SDS011;9495;51.210;2.934;2023-04-20T02:04:33;7.37;;;4.33;;
18732;SDS011;9495;51.210;2.934;2023-04-20T02:07:02;7.70;;;4.40;;
18732;SDS011;9495;51.210;2.934;2023-04-20T02:09:30;8.90;;;4.70;;
18732;SDS011;9495;51.210;2.934;2023-04-20T02:11:59;7.47;;;4.53;;
18732;SDS011;9495;51.210;2.934;2023-04-20T02:14:30;8.73;;;4.77;;
18732;SDS011;9495;51.210;2.934;2023-04-20T02:16:58;6.07;;;4.10;;
18732;SDS011;9495;51.210;2.934;2023-04-20T02:19:27;8.00;;;4.57;;
18732;SDS011;9495;51.210;2.934;2023-04-20T02:21:55;5.10;;;4.07;;
18732;SDS011;9495;51.210;2.934;2023-04-20T02:24:23;9.00;;;4.40;;
18732;SDS011;9495;51.210;2.934;2023-04-20T02:26:52;7.07;;;3.90;;
18732;SDS011;9495;51.210;2.934;2023-04-20T02:29:21;8.87;;;4.20;;
18732;SDS011;9495;51.210;2.934;2023-04-20T02:31:51;7.80;;;4.70;;
18732;SDS011;9495;51.210;2.934;2023-04-20T02:34:19;5.33;;;4.17;;
18732;SDS011;9495;51.210;2.934;2023-04-20T02:36:48;8.57;;;4.00;;
18732;SDS011;9495;51.210;2.934;2023-04-20T02:39:16;8.77;;;4.50;;
18732;SDS011;9495;51.210;2.934;2023-04-20T02:41:45;8.27;;;4.30;;
18732;SDS011;9495;51.210;2.934;2023-04-20T02:44:13;8.27;;;4.40;;
18732;SDS011;9495;51.210;2.934;2023-04-20T02:46:42;9.33;;;4.87;;
18732;SDS011;9495;51.210;2.934;2023-04-20T02:49:12;8.47;;;4.10;;
18732;SDS011;9495;51.210;2.934;2023-04-20T02:51:41;7.00;;;4.17;;
18732;SDS011;9495;51.210;2.934;2023-04-20T02:54:09;7.93;;;4.47;;
18732;SDS011;9495;51.210;2.934;2023-04-20T02:56:38;8.93;;;4.67;;
18732;SDS011;9495;51.210;2.934;2023-04-20T02:59:06;8.30;;;4.20;;
18732;SDS011;9495;51.210;2.934;2023-04-20T03:01:34;7.53;;;4.40;;
18732;SDS011;9495;51.210;2.934;2023-04-20T03:04:03;10.63;;;4.40;;
18732;SDS011;9495;51.210;2.934;2023-04-20T03:06:33;8.70;;;4.70;;
18732;SDS011;9495;51.210;2.934;2023-04-20T03:09:04;8.50;;;4.53;;
18732;SDS011;9495;51.210;2.934;2023-04-20T03:11:33;11.10;;;4.30;;
18732;SDS011;9495;51.210;2.934;2023-04-20T03:14:01;7.03;;;4.27;;
18732;SDS011;9495;51.210;2.934;2023-04-20T03:16:30;10.33;;;4.60;;
18732;SDS011;9495;51.210;2.934;2023-04-20T03:18:58;9.33;;;4.37;;
18732;SDS011;9495;51.210;2.934;2023-04-20T03:21:27;7.20;;;4.23;;
18732;SDS011;9495;51.210;2.934;2023-04-20T03:23:57;8.13;;;4.47;;
18732;SDS011;9495;51.210;2.934;2023-04-20T03:26:26;7.23;;;4.63;;
18732;SDS011;9495;51.210;2.934;2023-04-20T03:28:55;7.20;;;4.43;;
18732;SDS011;9495;51.210;2.934;2023-04-20T03:31:23;10.27;;;4.43;;
18732;SDS011;9495;51.210;2.934;2023-04-20T03:33:52;7.33;;;4.33;;
18732;SDS011;9495;51.210;2.934;2023-04-20T03:36:20;8.83;;;4.27;;
18732;SDS011;9495;51.210;2.934;2023-04-20T03:38:49;9.53;;;5.17;;
18732;SDS011;9495;51.210;2.934;2023-04-20T03:41:19;12.73;;;4.70;;
18732;SDS011;9495;51.210;2.934;2023-04-20T03:43:47;9.53;;;4.70;;
18732;SDS011;9495;51.210;2.934;2023-04-20T03:46:16;6.30;;;4.53;;
18732;SDS011;9495;51.210;2.934;2023-04-20T03:48:47;8.63;;;4.43;;
18732;SDS011;9495;51.210;2.934;2023-04-20T03:51:16;6.70;;;4.60;;
18732;SDS011;9495;51.210;2.934;2023-04-20T03:53:44;8.77;;;4.20;;
18732;SDS011;9495;51.210;2.934;2023-04-20T03:56:13;9.93;;;4.50;;
18732;SDS011;9495;51.210;2.934;2023-04-20T03:58:43;6.67;;;4.60;;
18732;SDS011;9495;51.210;2.934;2023-04-20T04:01:11;10.73;;;4.97;;
18732;SDS011;9495;51.210;2.934;2023-04-20T04:03:41;6.10;;;4.57;;
18732;SDS011;9495;51.210;2.934;2023-04-20T04:06:10;11.63;;;5.20;;
18732;SDS011;9495;51.210;2.934;2023-04-20T04:08:38;9.23;;;4.43;;
18732;SDS011;9495;51.210;2.934;2023-04-20T04:11:07;7.43;;;4.30;;
18732;SDS011;9495;51.210;2.934;2023-04-20T04:13:35;8.23;;;5.00;;
18732;SDS011;9495;51.210;2.934;2023-04-20T04:16:05;13.07;;;4.53;;
18732;SDS011;9495;51.210;2.934;2023-04-20T04:18:34;7.23;;;4.20;;
18732;SDS011;9495;51.210;2.934;2023-04-20T04:21:02;8.87;;;4.13;;
18732;SDS011;9495;51.210;2.934;2023-04-20T04:23:32;9.13;;;3.80;;
18732;SDS011;9495;51.210;2.934;2023-04-20T04:26:00;8.50;;;4.33;;
18732;SDS011;9495;51.210;2.934;2023-04-20T04:28:30;8.30;;;4.07;;
18732;SDS011;9495;51.210;2.934;2023-04-20T04:30:58;8.20;;;3.97;;
18732;SDS011;9495;51.210;2.934;2023-04-20T04:33:33;7.83;;;4.00;;
18732;SDS011;9495;51.210;2.934;2023-04-20T04:36:01;8.73;;;4.57;;
18732;SDS011;9495;51.210;2.934;2023-04-20T04:38:30;13.07;;;4.00;;
18732;SDS011;9495;51.210;2.934;2023-04-20T04:40:59;9.00;;;4.50;;
18732;SDS011;9495;51.210;2.934;2023-04-20T04:43:28;6.47;;;4.13;;
18732;SDS011;9495;51.210;2.934;2023-04-20T04:45:56;6.93;;;4.20;;
18732;SDS011;9495;51.210;2.934;2023-04-20T04:48:25;11.93;;;4.43;;
18732;SDS011;9495;51.210;2.934;2023-04-20T04:50:55;13.00;;;4.30;;
18732;SDS011;9495;51.210;2.934;2023-04-20T04:53:23;8.57;;;4.20;;
18732;SDS011;9495;51.210;2.934;2023-04-20T04:55:52;10.97;;;4.10;;
18732;SDS011;9495;51.210;2.934;2023-04-20T04:58:21;10.87;;;4.17;;
18732;SDS011;9495;51.210;2.934;2023-04-20T05:00:49;8.70;;;3.73;;
18732;SDS011;9495;51.210;2.934;2023-04-20T05:03:17;9.87;;;3.77;;
18732;SDS011;9495;51.210;2.934;2023-04-20T05:05:46;10.30;;;4.30;;
18732;SDS011;9495;51.210;2.934;2023-04-20T05:08:16;9.50;;;3.80;;
18732;SDS011;9495;51.210;2.934;2023-04-20T05:10:44;12.60;;;4.50;;
18732;SDS011;9495;51.210;2.934;2023-04-20T05:13:13;12.77;;;4.57;;
18732;SDS011;9495;51.210;2.934;2023-04-20T05:15:41;9.37;;;4.77;;
18732;SDS011;9495;51.210;2.934;2023-04-20T05:18:10;10.47;;;4.97;;
18732;SDS011;9495;51.210;2.934;2023-04-20T05:20:39;11.50;;;4.80;;
18732;SDS011;9495;51.210;2.934;2023-04-20T05:23:07;9.10;;;4.70;;
18732;SDS011;9495;51.210;2.934;2023-04-20T05:25:37;13.20;;;4.57;;
18732;SDS011;9495;51.210;2.934;2023-04-20T05:28:05;8.53;;;4.63;;
18732;SDS011;9495;51.210;2.934;2023-04-20T05:30:34;8.77;;;4.60;;
18732;SDS011;9495;51.210;2.934;2023-04-20T05:33:02;12.37;;;4.50;;
18732;SDS011;9495;51.210;2.934;2023-04-20T05:35:31;9.13;;;4.60;;
18732;SDS011;9495;51.210;2.934;2023-04-20T05:37:59;11.73;;;5.30;;
18732;SDS011;9495;51.210;2.934;2023-04-20T05:40:31;15.00;;;5.37;;
18732;SDS011;9495;51.210;2.934;2023-04-20T05:43:02;16.37;;;5.70;;
18732;SDS011;9495;51.210;2.934;2023-04-20T05:45:30;9.50;;;5.43;;
18732;SDS011;9495;51.210;2.934;2023-04-20T05:48:00;10.77;;;5.57;;
18732;SDS011;9495;51.210;2.934;2023-04-20T05:50:29;10.30;;;5.50;;
18732;SDS011;9495;51.210;2.934;2023-04-20T05:52:57;16.00;;;5.40;;
18732;SDS011;9495;51.210;2.934;2023-04-20T05:55:26;16.63;;;5.90;;
18732;SDS011;9495;51.210;2.934;2023-04-20T05:57:54;10.97;;;4.73;;
18732;SDS011;9495;51.210;2.934;2023-04-20T06:00:24;11.33;;;4.23;;
18732;SDS011;9495;51.210;2.934;2023-04-20T06:02:53;14.93;;;5.33;;
18732;SDS011;9495;51.210;2.934;2023-04-20T06:05:21;14.93;;;4.90;;
18732;SDS011;9495;51.210;2.934;2023-04-20T06:07:50;11.10;;;4.30;;
18732;SDS011;9495;51.210;2.934;2023-04-20T06:10:19;9.20;;;4.13;;
18732;SDS011;9495;51.210;2.934;2023-04-20T06:12:48;9.93;;;3.93;;
18732;SDS011;9495;51.210;2.934;2023-04-20T06:15:16;10.67;;;4.27;;
18732;SDS011;9495;51.210;2.934;2023-04-20T06:17:46;11.87;;;4.43;;
18732;SDS011;9495;51.210;2.934;2023-04-20T06:20:14;14.73;;;4.50;;
18732;SDS011;9495;51.210;2.934;2023-04-20T06:22:43;9.63;;;4.10;;
18732;SDS011;9495;51.210;2.934;2023-04-20T06:25:12;13.37;;;3.97;;
18732;SDS011;9495;51.210;2.934;2023-04-20T06:27:41;11.73;;;3.97;;
18732;SDS011;9495;51.210;2.934;2023-04-20T06:30:10;18.23;;;3.83;;
18732;SDS011;9495;51.210;2.934;2023-04-20T06:32:39;19.13;;;4.20;;
18732;SDS011;9495;51.210;2.934;2023-04-20T06:35:09;8.67;;;3.67;;
18732;SDS011;9495;51.210;2.934;2023-04-20T06:37:38;9.57;;;2.93;;
18732;SDS011;9495;51.210;2.934;2023-04-20T06:40:07;10.50;;;3.67;;
18732;SDS011;9495;51.210;2.934;2023-04-20T06:42:35;17.90;;;4.63;;
18732;SDS011;9495;51.210;2.934;2023-04-20T06:45:04;13.37;;;4.73;;
18732;SDS011;9495;51.210;2.934;2023-04-20T06:47:33;17.37;;;5.03;;
18732;SDS011;9495;51.210;2.934;2023-04-20T06:50:03;14.47;;;4.53;;
18732;SDS011;9495;51.210;2.934;2023-04-20T06:52:37;14.43;;;4.00;;
18732;SDS011;9495;51.210;2.934;2023-04-20T06:55:05;13.27;;;4.20;;
18732;SDS011;9495;51.210;2.934;2023-04-20T06:57:35;19.23;;;5.73;;
18732;SDS011;9495;51.210;2.934;2023-04-20T07:00:05;12.83;;;4.07;;
18732;SDS011;9495;51.210;2.934;2023-04-20T07:02:41;15.88;;;4.60;;
18732;SDS011;9495;51.210;2.934;2023-04-20T07:05:10;11.77;;;4.27;;
18732;SDS011;9495;51.210;2.934;2023-04-20T07:07:40;11.27;;;3.73;;
18732;SDS011;9495;51.210;2.934;2023-04-20T07:10:10;19.00;;;3.70;;
18732;SDS011;9495;51.210;2.934;2023-04-20T07:12:39;12.57;;;3.80;;
18732;SDS011;9495;51.210;2.934;2023-04-20T07:15:09;13.03;;;3.67;;
18732;SDS011;9495;51.210;2.934;2023-04-20T07:17:39;15.00;;;4.07;;
18732;SDS011;9495;51.210;2.934;2023-04-20T07:20:07;14.80;;;4.20;;
18732;SDS011;9495;51.210;2.934;2023-04-20T07:22:36;13.47;;;3.73;;
18732;SDS011;9495;51.210;2.934;2023-04-20T07:25:07;13.07;;;3.57;;
18732;SDS011;9495;51.210;2.934;2023-04-20T07:27:36;16.83;;;4.53;;
18732;SDS011;9495;51.210;2.934;2023-04-20T07:30:07;17.13;;;3.70;;
18732;SDS011;9495;51.210;2.934;2023-04-20T07:32:37;16.57;;;3.80;;
18732;SDS011;9495;51.210;2.934;2023-04-20T07:35:07;9.70;;;3.43;;
18732;SDS011;9495;51.210;2.934;2023-04-20T07:37:35;15.17;;;3.87;;
18732;SDS011;9495;51.210;2.934;2023-04-20T07:40:05;18.10;;;4.13;;
18732;SDS011;9495;51.210;2.934;2023-04-20T07:42:36;14.97;;;3.80;;
18732;SDS011;9495;51.210;2.934;2023-04-20T07:45:04;13.17;;;3.20;;
18732;SDS011;9495;51.210;2.934;2023-04-20T07:47:34;12.77;;;3.33;;
18732;SDS011;9495;51.210;2.934;2023-04-20T07:50:03;13.17;;;3.53;;
18732;SDS011;9495;51.210;2.934;2023-04-20T07:52:33;15.83;;;3.70;;
18732;SDS011;9495;51.210;2.934;2023-04-20T07:55:02;17.90;;;4.13;;
18732;SDS011;9495;51.210;2.934;2023-04-20T07:57:33;16.80;;;4.17;;
18732;SDS011;9495;51.210;2.934;2023-04-20T08:00:02;11.70;;;3.23;;
18732;SDS011;9495;51.210;2.934;2023-04-20T08:02:32;16.80;;;3.80;;
18732;SDS011;9495;51.210;2.934;2023-04-20T08:05:01;15.23;;;3.90;;
18732;SDS011;9495;51.210;2.934;2023-04-20T08:07:30;13.20;;;3.70;;
18732;SDS011;9495;51.210;2.934;2023-04-20T08:09:59;12.50;;;3.63;;
18732;SDS011;9495;51.210;2.934;2023-04-20T08:12:29;14.03;;;4.00;;
18732;SDS011;9495;51.210;2.934;2023-04-20T08:14:58;21.40;;;4.57;;
18732;SDS011;9495;51.210;2.934;2023-04-20T08:17:29;11.03;;;2.83;;
18732;SDS011;9495;51.210;2.934;2023-04-20T08:19:59;13.90;;;3.43;;
18732;SDS011;9495;51.210;2.934;2023-04-20T08:22:27;13.30;;;3.17;;
18732;SDS011;9495;51.210;2.934;2023-04-20T08:24:56;21.00;;;4.27;;
18732;SDS011;9495;51.210;2.934;2023-04-20T08:27:24;16.23;;;3.80;;
18732;SDS011;9495;51.210;2.934;2023-04-20T08:29:55;15.80;;;4.60;;
18732;SDS011;9495;51.210;2.934;2023-04-20T08:32:24;11.87;;;3.70;;
18732;SDS011;9495;51.210;2.934;2023-04-20T08:34:53;13.17;;;4.00;;
18732;SDS011;9495;51.210;2.934;2023-04-20T08:37:22;11.93;;;3.40;;
18732;SDS011;9495;51.210;2.934;2023-04-20T08:39:52;15.70;;;4.03;;
18732;SDS011;9495;51.210;2.934;2023-04-20T08:42:21;14.10;;;3.57;;
18732;SDS011;9495;51.210;2.934;2023-04-20T08:44:49;13.40;;;4.10;;
18732;SDS011;9495;51.210;2.934;2023-04-20T08:47:19;12.27;;;3.80;;
18732;SDS011;9495;51.210;2.934;2023-04-20T08:49:50;9.63;;;3.47;;
18732;SDS011;9495;51.210;2.934;2023-04-20T08:52:21;10.53;;;3.50;;
18732;SDS011;9495;51.210;2.934;2023-04-20T08:54:49;11.97;;;3.40;;
18732;SDS011;9495;51.210;2.934;2023-04-20T08:57:22;9.77;;;3.60;;
18732;SDS011;9495;51.210;2.934;2023-04-20T08:59:51;11.37;;;3.97;;
18732;SDS011;9495;51.210;2.934;2023-04-20T09:02:19;15.37;;;4.17;;
18732;SDS011;9495;51.210;2.934;2023-04-20T09:04:58;19.73;;;4.13;;
18732;SDS011;9495;51.210;2.934;2023-04-20T09:07:28;17.40;;;4.50;;
18732;SDS011;9495;51.210;2.934;2023-04-20T09:09:57;16.40;;;4.10;;
18732;SDS011;9495;51.210;2.934;2023-04-20T09:12:38;17.07;;;4.33;;
18732;SDS011;9495;51.210;2.934;2023-04-20T09:15:08;12.73;;;4.07;;
18732;SDS011;9495;51.210;2.934;2023-04-20T09:17:37;15.07;;;5.00;;
18732;SDS011;9495;51.210;2.934;2023-04-20T09:20:08;10.57;;;4.07;;
18732;SDS011;9495;51.210;2.934;2023-04-20T09:22:40;14.20;;;4.97;;
18732;SDS011;9495;51.210;2.934;2023-04-20T09:25:12;9.87;;;4.13;;
18732;SDS011;9495;51.210;2.934;2023-04-20T09:27:41;11.80;;;4.33;;
18732;SDS011;9495;51.210;2.934;2023-04-20T09:30:09;11.23;;;4.13;;
18732;SDS011;9495;51.210;2.934;2023-04-20T09:32:38;12.13;;;4.27;;
18732;SDS011;9495;51.210;2.934;2023-04-20T09:35:08;15.97;;;4.80;;
18732;SDS011;9495;51.210;2.934;2023-04-20T09:37:45;7.10;;;4.77;;
18732;SDS011;9495;51.210;2.934;2023-04-20T09:40:14;11.13;;;5.33;;
18732;SDS011;9495;51.210;2.934;2023-04-20T09:42:43;11.23;;;5.43;;
18732;SDS011;9495;51.210;2.934;2023-04-20T09:45:14;7.10;;;4.73;;
18732;SDS011;9495;51.210;2.934;2023-04-20T09:47:43;8.63;;;5.27;;
18732;SDS011;9495;51.210;2.934;2023-04-20T09:50:16;12.13;;;5.60;;
18732;SDS011;9495;51.210;2.934;2023-04-20T09:52:57;12.60;;;5.97;;
18732;SDS011;9495;51.210;2.934;2023-04-20T09:55:28;13.23;;;5.40;;
18732;SDS011;9495;51.210;2.934;2023-04-20T09:57:58;11.40;;;5.80;;
18732;SDS011;9495;51.210;2.934;2023-04-20T10:00:29;9.93;;;5.50;;
18732;SDS011;9495;51.210;2.934;2023-04-20T10:02:57;10.03;;;5.93;;
18732;SDS011;9495;51.210;2.934;2023-04-20T10:05:34;8.70;;;6.10;;
18732;SDS011;9495;51.210;2.934;2023-04-20T10:08:05;7.93;;;5.90;;
18732;SDS011;9495;51.210;2.934;2023-04-20T10:10:44;11.03;;;5.37;;
18732;SDS011;9495;51.210;2.934;2023-04-20T10:13:13;9.57;;;6.33;;
18732;SDS011;9495;51.210;2.934;2023-04-20T10:15:45;9.57;;;6.57;;
18732;SDS011;9495;51.210;2.934;2023-04-20T10:18:14;14.13;;;6.50;;
18732;SDS011;9495;51.210;2.934;2023-04-20T10:20:47;7.60;;;5.00;;
18732;SDS011;9495;51.210;2.934;2023-04-20T10:23:16;13.10;;;6.33;;
18732;SDS011;9495;51.210;2.934;2023-04-20T10:25:54;9.17;;;6.37;;
18732;SDS011;9495;51.210;2.934;2023-04-20T10:28:36;13.30;;;7.00;;
18732;SDS011;9495;51.210;2.934;2023-04-20T10:31:06;9.87;;;6.17;;
18732;SDS011;9495;51.210;2.934;2023-04-20T10:33:47;11.23;;;6.85;;
18732;SDS011;9495;51.210;2.934;2023-04-20T10:36:26;11.50;;;6.47;;
18732;SDS011;9495;51.210;2.934;2023-04-20T10:38:55;10.30;;;5.77;;
18732;SDS011;9495;51.210;2.934;2023-04-20T10:41:24;8.13;;;5.53;;
18732;SDS011;9495;51.210;2.934;2023-04-20T10:43:52;10.60;;;5.43;;
18732;SDS011;9495;51.210;2.934;2023-04-20T10:46:21;10.13;;;5.50;;
18732;SDS011;9495;51.210;2.934;2023-04-20T10:48:51;9.50;;;5.23;;
18732;SDS011;9495;51.210;2.934;2023-04-20T10:51:20;10.47;;;6.30;;
18732;SDS011;9495;51.210;2.934;2023-04-20T10:54:03;8.90;;;5.90;;
18732;SDS011;9495;51.210;2.934;2023-04-20T10:56:37;9.93;;;5.27;;
18732;SDS011;9495;51.210;2.934;2023-04-20T10:59:06;7.35;;;4.60;;
18732;SDS011;9495;51.210;2.934;2023-04-20T11:01:35;6.23;;;4.40;;
18732;SDS011;9495;51.210;2.934;2023-04-20T11:04:03;6.83;;;3.80;;
18732;SDS011;9495;51.210;2.934;2023-04-20T11:06:32;9.30;;;3.60;;
18732;SDS011;9495;51.210;2.934;2023-04-20T11:09:03;7.73;;;4.03;;
18732;SDS011;9495;51.210;2.934;2023-04-20T11:11:44;7.97;;;3.73;;
18732;SDS011;9495;51.210;2.934;2023-04-20T11:14:12;9.90;;;4.20;;
18732;SDS011;9495;51.210;2.934;2023-04-20T11:16:50;12.20;;;4.60;;
18732;SDS011;9495;51.210;2.934;2023-04-20T11:19:23;5.57;;;3.90;;
18732;SDS011;9495;51.210;2.934;2023-04-20T11:21:53;10.20;;;5.17;;
18732;SDS011;9495;51.210;2.934;2023-04-20T11:24:23;8.17;;;4.77;;
18732;SDS011;9495;51.210;2.934;2023-04-20T11:26:54;7.47;;;4.70;;
18732;SDS011;9495;51.210;2.934;2023-04-20T11:29:27;5.90;;;3.73;;
18732;SDS011;9495;51.210;2.934;2023-04-20T11:32:00;7.43;;;5.33;;
18732;SDS011;9495;51.210;2.934;2023-04-20T11:34:30;10.47;;;5.10;;
18732;SDS011;9495;51.210;2.934;2023-04-20T11:37:02;11.10;;;5.97;;
18732;SDS011;9495;51.210;2.934;2023-04-20T11:39:32;11.53;;;5.90;;
18732;SDS011;9495;51.210;2.934;2023-04-20T11:42:01;12.97;;;6.07;;
18732;SDS011;9495;51.210;2.934;2023-04-20T11:44:29;8.60;;;5.63;;
18732;SDS011;9495;51.210;2.934;2023-04-20T11:46:58;8.43;;;5.77;;
18732;SDS011;9495;51.210;2.934;2023-04-20T11:49:27;8.70;;;5.80;;
18732;SDS011;9495;51.210;2.934;2023-04-20T11:51:56;9.23;;;6.17;;
18732;SDS011;9495;51.210;2.934;2023-04-20T11:54:24;13.00;;;6.23;;
18732;SDS011;9495;51.210;2.934;2023-04-20T11:56:57;11.93;;;6.73;;
18732;SDS011;9495;51.210;2.934;2023-04-20T11:59:25;8.90;;;6.57;;
18732;SDS011;9495;51.210;2.934;2023-04-20T12:01:54;10.63;;;5.90;;
18732;SDS011;9495;51.210;2.934;2023-04-20T12:04:22;11.87;;;6.10;;
18732;SDS011;9495;51.210;2.934;2023-04-20T12:06:51;10.87;;;6.80;;
18732;SDS011;9495;51.210;2.934;2023-04-20T12:09:20;11.83;;;5.93;;
18732;SDS011;9495;51.210;2.934;2023-04-20T12:11:48;8.47;;;6.03;;
18732;SDS011;9495;51.210;2.934;2023-04-20T12:14:18;8.77;;;5.83;;
18732;SDS011;9495;51.210;2.934;2023-04-20T12:16:46;10.33;;;5.57;;
18732;SDS011;9495;51.210;2.934;2023-04-20T12:19:15;10.23;;;6.63;;
18732;SDS011;9495;51.210;2.934;2023-04-20T12:21:44;9.10;;;5.57;;
18732;SDS011;9495;51.210;2.934;2023-04-20T12:24:13;6.97;;;5.30;;
18732;SDS011;9495;51.210;2.934;2023-04-20T12:26:41;9.07;;;6.23;;
18732;SDS011;9495;51.210;2.934;2023-04-20T12:29:11;12.97;;;7.73;;
18732;SDS011;9495;51.210;2.934;2023-04-20T12:31:41;10.57;;;6.83;;
18732;SDS011;9495;51.210;2.934;2023-04-20T12:34:09;10.60;;;7.20;;
18732;SDS011;9495;51.210;2.934;2023-04-20T12:36:38;16.30;;;7.97;;
18732;SDS011;9495;51.210;2.934;2023-04-20T12:39:07;9.83;;;7.13;;
18732;SDS011;9495;51.210;2.934;2023-04-20T12:41:37;15.43;;;7.53;;
18732;SDS011;9495;51.210;2.934;2023-04-20T12:44:07;11.87;;;7.37;;
18732;SDS011;9495;51.210;2.934;2023-04-20T12:46:37;7.97;;;6.67;;
18732;SDS011;9495;51.210;2.934;2023-04-20T12:49:07;11.13;;;7.70;;
18732;SDS011;9495;51.210;2.934;2023-04-20T12:51:36;14.60;;;7.57;;
18732;SDS011;9495;51.210;2.934;2023-04-20T12:54:04;14.03;;;7.43;;
18732;SDS011;9495;51.210;2.934;2023-04-20T12:56:33;12.87;;;7.90;;
18732;SDS011;9495;51.210;2.934;2023-04-20T12:59:02;10.93;;;6.90;;
18732;SDS011;9495;51.210;2.934;2023-04-20T13:01:30;10.83;;;6.93;;
18732;SDS011;9495;51.210;2.934;2023-04-20T13:03:59;12.43;;;7.17;;
18732;SDS011;9495;51.210;2.934;2023-04-20T13:06:29;12.83;;;7.63;;
18732;SDS011;9495;51.210;2.934;2023-04-20T13:08:59;13.20;;;8.87;;
18732;SDS011;9495;51.210;2.934;2023-04-20T13:11:28;13.40;;;7.90;;
18732;SDS011;9495;51.210;2.934;2023-04-20T13:13:57;9.00;;;8.10;;
18732;SDS011;9495;51.210;2.934;2023-04-20T13:16:26;16.83;;;8.90;;
18732;SDS011;9495;51.210;2.934;2023-04-20T13:18:55;13.43;;;8.73;;
18732;SDS011;9495;51.210;2.934;2023-04-20T13:21:23;11.70;;;8.20;;
18732;SDS011;9495;51.210;2.934;2023-04-20T13:23:53;14.60;;;8.57;;
18732;SDS011;9495;51.210;2.934;2023-04-20T13:26:22;12.23;;;8.00;;
18732;SDS011;9495;51.210;2.934;2023-04-20T13:28:51;13.30;;;8.83;;
18732;SDS011;9495;51.210;2.934;2023-04-20T13:31:22;12.77;;;8.53;;
18732;SDS011;9495;51.210;2.934;2023-04-20T13:33:51;11.63;;;9.17;;
18732;SDS011;9495;51.210;2.934;2023-04-20T13:36:20;13.13;;;10.07;;
18732;SDS011;9495;51.210;2.934;2023-04-20T13:38:49;12.13;;;10.07;;
18732;SDS011;9495;51.210;2.934;2023-04-20T13:41:20;11.83;;;10.40;;
18732;SDS011;9495;51.210;2.934;2023-04-20T13:43:49;15.20;;;10.87;;
18732;SDS011;9495;51.210;2.934;2023-04-20T13:46:17;12.10;;;10.57;;
18732;SDS011;9495;51.210;2.934;2023-04-20T13:48:46;12.50;;;11.20;;
18732;SDS011;9495;51.210;2.934;2023-04-20T13:51:15;13.00;;;11.70;;
18732;SDS011;9495;51.210;2.934;2023-04-20T13:53:43;12.30;;;11.00;;
18732;SDS011;9495;51.210;2.934;2023-04-20T13:56:13;16.40;;;12.57;;
18732;SDS011;9495;51.210;2.934;2023-04-20T13:58:43;13.87;;;12.47;;
18732;SDS011;9495;51.210;2.934;2023-04-20T14:01:13;15.17;;;12.33;;
18732;SDS011;9495;51.210;2.934;2023-04-20T14:03:43;14.00;;;12.13;;
18732;SDS011;9495;51.210;2.934;2023-04-20T14:06:11;13.43;;;12.03;;
18732;SDS011;9495;51.210;2.934;2023-04-20T14:08:40;13.40;;;10.43;;
18732;SDS011;9495;51.210;2.934;2023-04-20T14:11:09;14.80;;;12.17;;
18732;SDS011;9495;51.210;2.934;2023-04-20T14:13:37;12.83;;;11.07;;
18732;SDS011;9495;51.210;2.934;2023-04-20T14:16:08;14.30;;;10.60;;
18732;SDS011;9495;51.210;2.934;2023-04-20T14:18:37;13.17;;;9.07;;
18732;SDS011;9495;51.210;2.934;2023-04-20T14:21:06;11.50;;;8.83;;
18732;SDS011;9495;51.210;2.934;2023-04-20T14:23:34;11.50;;;8.90;;
18732;SDS011;9495;51.210;2.934;2023-04-20T14:26:03;15.33;;;9.27;;
18732;SDS011;9495;51.210;2.934;2023-04-20T14:28:31;12.53;;;8.30;;
18732;SDS011;9495;51.210;2.934;2023-04-20T14:31:00;11.00;;;7.87;;
18732;SDS011;9495;51.210;2.934;2023-04-20T14:33:30;11.80;;;8.20;;
18732;SDS011;9495;51.210;2.934;2023-04-20T14:35:59;10.60;;;7.23;;
18732;SDS011;9495;51.210;2.934;2023-04-20T14:38:27;8.67;;;7.33;;
18732;SDS011;9495;51.210;2.934;2023-04-20T14:40:56;9.80;;;7.07;;
18732;SDS011;9495;51.210;2.934;2023-04-20T14:43:25;9.57;;;6.87;;
18732;SDS011;9495;51.210;2.934;2023-04-20T14:45:53;9.70;;;7.47;;
18732;SDS011;9495;51.210;2.934;2023-04-20T14:48:24;7.97;;;7.13;;
18732;SDS011;9495;51.210;2.934;2023-04-20T14:50:54;9.40;;;7.57;;
18732;SDS011;9495;51.210;2.934;2023-04-20T14:53:23;10.43;;;7.13;;
18732;SDS011;9495;51.210;2.934;2023-04-20T14:55:51;9.93;;;7.57;;
18732;SDS011;9495;51.210;2.934;2023-04-20T14:58:21;9.87;;;7.33;;
18732;SDS011;9495;51.210;2.934;2023-04-20T15:00:50;13.30;;;7.57;;
18732;SDS011;9495;51.210;2.934;2023-04-20T15:03:19;10.60;;;7.93;;
18732;SDS011;9495;51.210;2.934;2023-04-20T15:05:48;7.63;;;6.83;;